Almagrundet, Sweden

12:51 PM CEST on September 02, 2015 (GMT +0200)
Ingarö | | Change Station
CLOSE
Current Station
Personal Weather Station
Location: Stockholms Län, STOCKHOLMS LäN
Elevation: 115 ft
Nearby Weather Stations

Elev 115 ft 59.25 °N, 18.54 °E | Updated 6 minutes ago

Overcast
Overcast
57.4 °F
Feels Like 57.4 °F
N
2.2
Wind Variable Wind from SE
Gusts 5.4 mph

Today
High -- | Low -- °F
--% Chance of Precip.
Yesterday
High -- | Low -- °F
Precip. -- in
5:41 AM 7:43 PM
Waning Gibbous, 81% visible
Pressure 29.65 in
Visibility 3.1 miles
Clouds Mostly Cloudy 600 ft
Overcast 1100 ft
Dew Point 56 °F
Humidity 94%
Rainfall 0.26 in
Snow Depth Not available.
UV 1 out of 12
Pollen Not available.
Air Quality Not available.
Flu Activity Not available.
METAR ESSB 021020Z 07015KT 5000 BR BKN006 OVC011 15/14 Q1004
Pressure 29.65 in
Visibility 3.1 miles
Clouds Mostly Cloudy 600 ft
Overcast 1100 ft
Dew Point 56 °F
Humidity 94%
Rainfall 0.26 in
Snow Depth Not available.
UV 1 out of 12
Pollen Not available.
Air Quality Not available.
Flu Activity Not available.
METAR ESSB 021020Z 07015KT 5000 BR BKN006 OVC011 15/14 Q1004

10-Day Weather Forecast

×

Almanac

Astronomy

Sep. 02, 2015 Rise Set
Actual Time
Civil Twilight
Nautical Twilight
Astronomical Twilight
Moon
Length of Visible Light
Length of Day
Tomorrow will be .
, % of the Moon is Illuminated

Today's Extremes

Country Highs Country Lows

Community

WunderPhotos

Upload Photos

1,851,734 photos uploaded!

WunderBlogs® & News

Nearby

Air Quality

  Air Quality AQ Index Pollutant
Not available.

Snow Depth

Station Depth Elevation

Earthquake Activity

City Distance Mag. Time & Date
Minimum magnitude displayed is 2.5.

Coastal Water Temperatures

Place Temperature

Stations

Nearby Weather Stations

Station Location Temp. Windchill Dew Point Humidity Wind Precip. Elev Updated Type